createdAt,value
2023-05-11T00:01:29.904Z,10.00
2023-05-11T00:03:57.180Z,9.50
2023-05-11T00:06:24.396Z,9.00
2023-05-11T00:08:51.539Z,9.45
2023-05-11T00:11:18.766Z,8.80
2023-05-11T00:13:46.190Z,9.73
2023-05-11T00:16:13.402Z,9.07
2023-05-11T00:18:40.747Z,8.68
2023-05-11T00:21:08.091Z,9.25
2023-05-11T00:23:35.417Z,9.35
2023-05-11T00:26:02.594Z,9.10
2023-05-11T00:28:29.818Z,9.18
2023-05-11T00:31:00.022Z,9.55
2023-05-11T00:33:27.295Z,9.35
2023-05-11T00:35:54.392Z,9.27
2023-05-11T00:38:21.443Z,9.50
2023-05-11T00:40:49.756Z,9.43
2023-05-11T00:43:16.903Z,9.60
2023-05-11T00:45:47.915Z,10.00
2023-05-11T00:48:15.815Z,9.98
2023-05-11T00:50:43.457Z,10.05
2023-05-11T00:53:11.467Z,9.25
2023-05-11T00:55:38.722Z,11.00
2023-05-11T00:58:06.069Z,10.00
2023-05-11T01:00:33.351Z,10.45
2023-05-11T01:03:02.155Z,10.45
2023-05-11T01:05:43.500Z,10.57
2023-05-11T01:08:15.914Z,10.20
2023-05-11T01:10:45.969Z,10.55
2023-05-11T01:13:16.127Z,9.80
2023-05-11T01:15:48.906Z,9.88
2023-05-11T01:18:17.595Z,10.75
2023-05-11T01:20:47.094Z,11.38
2023-05-11T01:23:18.212Z,10.73
2023-05-11T01:25:48.354Z,10.55
2023-05-11T01:28:23.939Z,10.40
2023-05-11T01:30:55.808Z,10.85
2023-05-11T01:33:26.923Z,11.07
2023-05-11T01:35:57.304Z,10.32
2023-05-11T01:38:26.310Z,10.73
2023-05-11T01:40:55.975Z,10.63
2023-05-11T01:43:26.304Z,11.27
2023-05-11T01:45:54.456Z,11.82
2023-05-11T01:48:23.380Z,10.98
2023-05-11T01:50:51.138Z,10.00
2023-05-11T01:53:19.933Z,10.98
2023-05-11T01:55:48.109Z,9.32
2023-05-11T01:58:17.629Z,9.75
2023-05-11T02:00:45.894Z,9.93
2023-05-11T02:03:13.977Z,10.77
2023-05-11T02:05:41.686Z,12.02
2023-05-11T02:08:09.097Z,11.27
2023-05-11T02:10:37.580Z,10.38
2023-05-11T02:13:05.536Z,10.68
2023-05-11T02:15:34.481Z,10.98
2023-05-11T02:18:02.022Z,9.77
2023-05-11T02:20:29.406Z,11.07
2023-05-11T02:22:57.729Z,11.98
2023-05-11T02:25:25.018Z,11.63
2023-05-11T02:27:52.302Z,11.02
2023-05-11T02:30:19.902Z,10.07
2023-05-11T02:32:53.070Z,10.98
2023-05-11T02:35:28.961Z,11.30
2023-05-11T02:37:58.581Z,10.90
2023-05-11T02:40:32.694Z,12.35
2023-05-11T02:43:08.968Z,10.32
2023-05-11T02:45:37.715Z,11.43
2023-05-11T02:48:09.890Z,11.55
2023-05-11T02:50:38.712Z,11.63
2023-05-11T02:53:07.859Z,11.90
2023-05-11T02:55:35.479Z,11.80
2023-05-11T02:58:02.726Z,11.90
2023-05-11T03:00:30.091Z,12.00
2023-05-11T03:02:57.430Z,11.65
2023-05-11T03:05:24.675Z,11.32
2023-05-11T03:07:52.451Z,11.63
2023-05-11T03:10:19.773Z,11.85
2023-05-11T03:12:47.289Z,12.75
2023-05-11T03:15:16.228Z,10.50
2023-05-11T03:17:46.826Z,10.65
2023-05-11T03:20:15.996Z,11.05
2023-05-11T03:22:43.997Z,11.52
2023-05-11T03:25:11.726Z,11.07
2023-05-11T03:27:39.622Z,11.80
2023-05-11T03:30:11.869Z,10.52
2023-05-11T03:32:43.406Z,10.82
2023-05-11T03:35:10.878Z,11.32
2023-05-11T03:37:38.825Z,11.85
2023-05-11T03:40:09.647Z,10.90
2023-05-11T03:42:50.881Z,10.82
2023-05-11T03:45:19.159Z,11.30
2023-05-11T03:47:47.436Z,11.90
2023-05-11T03:50:15.202Z,12.55
2023-05-11T03:52:42.546Z,12.20
2023-05-11T03:55:09.953Z,11.98
2023-05-11T03:57:37.071Z,10.98
2023-05-11T04:00:04.428Z,11.25
2023-05-11T04:02:31.704Z,11.15
2023-05-11T04:04:58.913Z,12.20
2023-05-11T04:07:26.162Z,11.73
2023-05-11T04:09:53.262Z,11.38
2023-05-11T04:12:21.356Z,11.60
2023-05-11T04:14:48.509Z,11.82
2023-05-11T04:17:15.641Z,10.93
2023-05-11T04:19:44.765Z,11.60
2023-05-11T04:22:12.290Z,11.98
2023-05-11T04:24:39.748Z,11.73
2023-05-11T04:27:08.239Z,10.73
2023-05-11T04:29:35.476Z,11.48
2023-05-11T04:32:02.700Z,10.65
2023-05-11T04:34:30.589Z,10.85
2023-05-11T04:36:58.016Z,11.02
2023-05-11T04:39:26.228Z,10.45
2023-05-11T04:41:53.591Z,11.05
2023-05-11T04:44:20.855Z,10.15
2023-05-11T04:46:48.087Z,10.40
2023-05-11T04:49:15.298Z,10.25
2023-05-11T04:51:42.429Z,11.13
2023-05-11T04:54:10.283Z,10.93
2023-05-11T04:56:40.559Z,11.52
2023-05-11T04:59:08.217Z,11.10
2023-05-11T05:01:35.375Z,10.10
2023-05-11T05:04:03.024Z,10.63
2023-05-11T05:06:30.248Z,10.50
2023-05-11T05:08:57.362Z,10.63
2023-05-11T05:11:24.556Z,10.45
2023-05-11T05:13:51.712Z,11.02
2023-05-11T05:16:18.854Z,10.63
2023-05-11T05:18:46.271Z,11.07
2023-05-11T05:21:13.422Z,10.95
2023-05-11T05:23:40.559Z,10.52
2023-05-11T05:26:07.674Z,10.75
2023-05-11T05:28:36.783Z,10.95
2023-05-11T05:31:04.793Z,10.80
2023-05-11T05:33:32.771Z,10.68
2023-05-11T05:36:00.222Z,10.75
2023-05-11T05:38:27.530Z,11.00
2023-05-11T05:40:56.533Z,11.90
2023-05-11T05:43:24.495Z,10.93
2023-05-11T05:45:52.141Z,11.23
2023-05-11T05:48:19.495Z,11.23
2023-05-11T05:50:47.349Z,10.30
2023-05-11T05:53:14.852Z,10.25
2023-05-11T05:55:42.034Z,10.50
2023-05-11T05:58:09.688Z,10.45
2023-05-11T06:00:37.072Z,9.85
2023-05-11T06:03:07.767Z,10.15
2023-05-11T06:05:36.211Z,10.40
2023-05-11T06:08:10.642Z,10.55
2023-05-11T06:10:39.174Z,9.73
2023-05-11T06:13:08.224Z,9.30
2023-05-11T06:15:36.129Z,9.45
2023-05-11T06:18:10.559Z,9.23
2023-05-11T06:20:39.402Z,10.35
2023-05-11T06:23:07.920Z,10.60
2023-05-11T06:25:38.764Z,8.93
2023-05-11T06:28:06.806Z,9.38
2023-05-11T06:30:35.503Z,9.60
2023-05-11T06:33:03.189Z,10.25
2023-05-11T06:35:30.455Z,9.75
2023-05-11T06:37:58.507Z,8.98
2023-05-11T06:40:26.023Z,10.15
2023-05-11T06:42:53.084Z,10.07
2023-05-11T06:45:20.404Z,9.25
2023-05-11T06:47:48.046Z,9.52
2023-05-11T06:50:15.405Z,9.55
2023-05-11T06:52:42.696Z,9.77
2023-05-11T06:55:14.101Z,9.68
2023-05-11T06:57:41.333Z,9.60
2023-05-11T07:00:09.010Z,9.80
2023-05-11T07:02:36.190Z,9.13
2023-05-11T07:05:03.484Z,9.60
2023-05-11T07:07:30.645Z,8.75
2023-05-11T07:09:57.878Z,10.02
2023-05-11T07:12:24.981Z,9.10
2023-05-11T07:14:52.113Z,10.02
2023-05-11T07:17:19.269Z,10.10
2023-05-11T07:19:46.408Z,9.48
2023-05-11T07:22:15.058Z,10.73
2023-05-11T07:24:42.567Z,9.60
2023-05-11T07:27:10.131Z,11.05
2023-05-11T07:29:37.379Z,9.98
2023-05-11T07:32:04.642Z,10.65
2023-05-11T07:34:31.781Z,10.80
2023-05-11T07:36:58.927Z,10.88
2023-05-11T07:39:26.078Z,9.52
2023-05-11T07:41:53.200Z,8.32
2023-05-11T07:44:20.332Z,9.10
2023-05-11T07:46:47.592Z,8.27
2023-05-11T07:49:18.849Z,8.15
2023-05-11T07:51:50.626Z,8.68
2023-05-11T07:54:19.473Z,8.07
2023-05-11T07:56:48.078Z,8.85
2023-05-11T07:59:15.245Z,8.52
2023-05-11T08:01:42.512Z,8.18
2023-05-11T08:04:09.903Z,7.80
2023-05-11T08:06:37.080Z,7.90
2023-05-11T08:09:04.603Z,8.32
2023-05-11T08:11:31.749Z,8.65
2023-05-11T08:13:58.890Z,7.85
2023-05-11T08:16:26.122Z,7.82
2023-05-11T08:18:53.248Z,7.07
2023-05-11T08:21:20.391Z,7.50
2023-05-11T08:23:47.460Z,8.95
2023-05-11T08:26:14.564Z,7.63
2023-05-11T08:28:41.635Z,7.97
2023-05-11T08:31:08.791Z,7.57
2023-05-11T08:33:38.724Z,7.93
2023-05-11T08:36:06.798Z,8.32
2023-05-11T08:38:35.210Z,7.75
2023-05-11T08:41:02.618Z,7.72
2023-05-11T08:43:30.629Z,7.68
2023-05-11T08:46:01.140Z,7.82
2023-05-11T08:48:28.601Z,7.50
2023-05-11T08:50:55.772Z,7.40
2023-05-11T08:53:23.554Z,8.52
2023-05-11T08:55:51.536Z,7.68
2023-05-11T08:58:21.704Z,8.02
2023-05-11T09:00:52.126Z,7.05
2023-05-11T09:03:19.878Z,7.45
2023-05-11T09:05:47.489Z,7.07
2023-05-11T09:08:15.223Z,7.32
2023-05-11T09:10:43.626Z,6.97
2023-05-11T09:13:10.900Z,7.32
2023-05-11T09:15:38.540Z,6.63
2023-05-11T09:18:06.056Z,6.45
2023-05-11T09:20:34.468Z,6.80
2023-05-11T09:23:01.799Z,5.85
2023-05-11T09:25:34.890Z,5.90
2023-05-11T09:28:02.149Z,6.47
2023-05-11T09:30:29.415Z,5.82
2023-05-11T09:32:57.567Z,6.03
2023-05-11T09:35:25.863Z,6.10
2023-05-11T09:38:02.701Z,5.90
2023-05-11T09:40:34.288Z,5.28
2023-05-11T09:43:02.459Z,4.88
2023-05-11T09:46:01.613Z,5.53
2023-05-11T09:48:30.120Z,6.00
2023-05-11T09:51:06.383Z,5.90
2023-05-11T09:53:45.420Z,6.43
2023-05-11T09:58:51.140Z,7.38
2023-05-11T10:01:19.233Z,7.40
2023-05-11T10:04:00.241Z,8.93
2023-05-11T10:06:45.776Z,8.02
2023-05-11T10:09:13.461Z,9.90
2023-05-11T10:11:44.267Z,12.07
2023-05-11T10:14:12.050Z,12.68
2023-05-11T10:16:40.920Z,13.20
2023-05-11T10:19:08.410Z,13.82
2023-05-11T10:21:36.070Z,13.18
2023-05-11T10:24:04.498Z,13.27
2023-05-11T10:26:34.768Z,13.52
2023-05-11T10:29:02.009Z,13.25
2023-05-11T10:33:57.731Z,11.30
2023-05-11T10:36:26.217Z,10.93
2023-05-11T10:38:53.401Z,10.32
2023-05-11T10:41:47.070Z,9.93
2023-05-11T10:44:21.028Z,8.77
2023-05-11T10:47:07.191Z,8.68
2023-05-11T10:49:40.418Z,8.35
2023-05-11T10:52:07.517Z,7.72
2023-05-11T10:54:40.731Z,7.68
2023-05-11T10:57:18.864Z,7.80
2023-05-11T11:00:10.072Z,7.75
2023-05-11T11:02:38.224Z,8.68
2023-05-11T11:05:09.469Z,8.07
2023-05-11T11:08:04.070Z,9.43
2023-05-11T11:10:32.443Z,8.63
2023-05-11T11:13:20.059Z,9.93
2023-05-11T11:16:10.063Z,8.32
2023-05-11T11:18:37.469Z,7.32
2023-05-11T11:21:04.736Z,7.90
2023-05-11T11:23:37.895Z,8.60
2023-05-11T11:26:05.131Z,8.68
2023-05-11T11:28:57.258Z,7.53
2023-05-11T11:31:28.272Z,8.13
2023-05-11T11:33:58.844Z,8.57
2023-05-11T11:36:58.570Z,7.60
2023-05-11T11:39:30.355Z,7.30
2023-05-11T11:42:04.174Z,8.27
2023-05-11T11:44:31.430Z,7.15
2023-05-11T11:47:11.094Z,8.07
2023-05-11T11:49:39.201Z,6.22
2023-05-11T11:52:07.139Z,6.43
2023-05-11T11:54:38.195Z,7.75
2023-05-11T11:57:05.407Z,7.15
2023-05-11T11:59:47.187Z,7.03
2023-05-11T12:02:16.908Z,8.32
2023-05-11T12:04:52.347Z,7.95
2023-05-11T12:07:21.420Z,8.10
2023-05-11T12:09:48.867Z,8.73
2023-05-11T12:12:18.031Z,7.88
2023-05-11T12:14:48.976Z,8.15
2023-05-11T12:17:17.535Z,8.18
2023-05-11T12:19:44.921Z,9.05
2023-05-11T12:22:14.318Z,8.68
2023-05-11T12:24:41.883Z,8.02
2023-05-11T12:27:09.395Z,8.20
2023-05-11T12:29:36.594Z,8.02
2023-05-11T12:32:03.859Z,8.25
2023-05-11T12:34:31.024Z,7.78
2023-05-11T12:37:00.457Z,8.43
2023-05-11T12:39:28.494Z,7.13
2023-05-11T12:41:56.392Z,7.18
2023-05-11T12:44:25.435Z,7.22
2023-05-11T12:46:53.130Z,6.80
2023-05-11T12:51:51.109Z,6.82
2023-05-11T12:54:30.723Z,6.47
2023-05-11T12:56:59.036Z,6.40
2023-05-11T12:59:29.955Z,6.43
2023-05-11T13:02:06.201Z,6.07
2023-05-11T13:04:33.465Z,6.20
2023-05-11T13:07:00.578Z,5.93
2023-05-11T13:09:28.236Z,7.03
2023-05-11T13:12:18.897Z,5.70
2023-05-11T13:14:46.916Z,5.63
2023-05-11T13:17:14.213Z,5.43
2023-05-11T13:19:41.482Z,4.63
2023-05-11T13:22:11.586Z,3.58
2023-05-11T13:24:38.809Z,3.25
2023-05-11T13:27:06.352Z,3.25
2023-05-11T13:29:33.488Z,2.75
2023-05-11T13:32:00.764Z,2.17
2023-05-11T13:34:27.932Z,2.20
2023-05-11T13:36:55.073Z,1.70
2023-05-11T13:39:22.206Z,1.92
2023-05-11T13:41:49.432Z,1.80
2023-05-11T13:44:16.579Z,1.83
2023-05-11T13:46:43.764Z,2.28
2023-05-11T13:49:11.276Z,2.40
2023-05-11T13:51:38.413Z,2.25
2023-05-11T13:54:05.722Z,2.30
2023-05-11T13:56:33.016Z,2.35
2023-05-11T13:59:00.386Z,2.30
2023-05-11T14:01:27.764Z,3.20
2023-05-11T14:03:55.228Z,3.70
2023-05-11T14:06:23.535Z,3.00
2023-05-11T14:08:50.942Z,3.30
2023-05-11T14:11:18.216Z,2.92
2023-05-11T14:13:45.354Z,2.80
2023-05-11T14:16:12.635Z,2.92
2023-05-11T14:18:39.823Z,3.17
2023-05-11T14:21:06.905Z,2.75
2023-05-11T14:23:33.993Z,2.95
2023-05-11T14:26:01.203Z,3.00
2023-05-11T14:28:28.460Z,2.95
2023-05-11T14:30:56.084Z,3.40
2023-05-11T14:33:25.349Z,3.55
2023-05-11T14:35:52.786Z,3.42
2023-05-11T14:38:20.177Z,4.03
2023-05-11T14:40:47.337Z,3.20
2023-05-11T14:43:14.469Z,3.05
2023-05-11T14:45:41.635Z,3.45
2023-05-11T14:48:08.771Z,2.95
2023-05-11T14:50:36.135Z,3.53
2023-05-11T14:53:03.278Z,3.17
2023-05-11T14:55:31.106Z,3.47
2023-05-11T14:57:58.272Z,3.63
2023-05-11T15:00:25.663Z,3.42
2023-05-11T15:02:52.821Z,3.85
2023-05-11T15:05:20.201Z,4.35
2023-05-11T15:07:47.523Z,3.75
2023-05-11T15:10:14.687Z,3.80
2023-05-11T15:12:41.877Z,3.75
2023-05-11T15:15:09.349Z,3.25
2023-05-11T15:17:36.587Z,3.08
2023-05-11T15:20:03.864Z,2.90
2023-05-11T15:22:30.991Z,2.17
2023-05-11T15:24:58.113Z,2.30
2023-05-11T15:27:25.211Z,2.67
2023-05-11T15:29:52.404Z,2.58
2023-05-11T15:32:20.318Z,2.38
2023-05-11T15:34:58.672Z,1.50
2023-05-11T15:37:27.206Z,1.27
2023-05-11T15:39:54.304Z,1.42
2023-05-11T15:42:21.532Z,2.22
2023-05-11T15:44:48.635Z,2.60
2023-05-11T15:47:16.223Z,2.70
2023-05-11T15:49:43.472Z,3.00
2023-05-11T15:52:10.678Z,3.55
2023-05-11T15:54:37.727Z,4.03
2023-05-11T15:57:05.006Z,4.22
2023-05-11T15:59:35.201Z,3.80
2023-05-11T16:02:02.282Z,3.78
2023-05-11T16:04:29.505Z,3.15
2023-05-11T16:06:58.752Z,2.58
2023-05-11T16:09:26.155Z,2.70
2023-05-11T16:11:53.304Z,2.50
2023-05-11T16:14:20.447Z,2.10
2023-05-11T16:16:47.660Z,2.28
2023-05-11T16:19:14.823Z,2.00
2023-05-11T16:21:43.502Z,2.20
2023-05-11T16:24:10.628Z,1.88
2023-05-11T16:26:37.813Z,2.67
2023-05-11T16:29:05.880Z,2.60
2023-05-11T16:31:33.161Z,3.25
2023-05-11T16:34:00.293Z,3.05
2023-05-11T16:36:28.238Z,3.20
2023-05-11T16:38:55.610Z,3.20
2023-05-11T16:41:25.051Z,3.53
2023-05-11T16:43:52.151Z,3.13
2023-05-11T16:46:19.359Z,3.40
2023-05-11T16:48:46.561Z,3.38
2023-05-11T16:51:13.689Z,3.30
2023-05-11T16:53:41.893Z,3.50
2023-05-11T16:56:09.128Z,3.75
2023-05-11T16:58:36.247Z,3.10
2023-05-11T17:01:03.429Z,3.47
2023-05-11T17:03:30.686Z,3.55
2023-05-11T17:05:57.787Z,3.10
2023-05-11T17:08:25.013Z,3.20
2023-05-11T17:10:52.188Z,4.60
2023-05-11T17:13:19.277Z,4.85
2023-05-11T17:15:47.124Z,4.03
2023-05-11T17:18:14.280Z,2.97
2023-05-11T17:20:41.375Z,2.85
2023-05-11T17:23:08.471Z,2.83
2023-05-11T17:25:35.776Z,3.30
2023-05-11T17:28:02.916Z,3.47
2023-05-11T17:30:39.928Z,3.92
2023-05-11T17:33:15.113Z,4.10
2023-05-11T17:35:42.404Z,5.03
2023-05-11T17:38:09.565Z,3.83
2023-05-11T17:40:36.657Z,3.65
2023-05-11T17:43:03.758Z,4.38
2023-05-11T17:45:30.821Z,4.15
2023-05-11T17:47:58.022Z,3.83
2023-05-11T17:50:25.233Z,3.20
2023-05-11T17:52:52.363Z,3.00
2023-05-11T17:55:19.753Z,3.35
2023-05-11T17:57:47.117Z,3.40
2023-05-11T18:00:14.508Z,3.38
2023-05-11T18:02:42.212Z,3.47
2023-05-11T18:05:09.494Z,3.25
2023-05-11T18:07:36.642Z,3.28
2023-05-11T18:10:03.858Z,3.33
2023-05-11T18:12:32.422Z,3.80
2023-05-11T18:14:59.903Z,3.33
2023-05-11T18:17:27.156Z,3.78
2023-05-11T18:19:54.387Z,3.80
2023-05-11T18:22:23.011Z,3.78
2023-05-11T18:24:50.345Z,3.38
2023-05-11T18:27:18.391Z,3.50
2023-05-11T18:29:45.531Z,3.25
2023-05-11T18:32:12.586Z,2.63
2023-05-11T18:34:41.304Z,2.33
2023-05-11T18:37:09.547Z,2.50
2023-05-11T18:39:36.671Z,2.38
2023-05-11T18:42:04.863Z,2.30
2023-05-11T18:44:32.134Z,3.00
2023-05-11T18:46:59.511Z,2.90
2023-05-11T18:49:26.766Z,3.15
2023-05-11T18:51:54.097Z,3.35
2023-05-11T18:54:21.257Z,3.53
2023-05-11T18:56:48.366Z,3.67
2023-05-11T18:59:15.697Z,3.55
2023-05-11T19:01:48.021Z,3.85
2023-05-11T19:04:19.495Z,4.20
2023-05-11T19:06:46.738Z,4.05
2023-05-11T19:09:14.067Z,3.70
2023-05-11T19:11:41.195Z,4.05
2023-05-11T19:14:10.299Z,3.80
2023-05-11T19:16:37.560Z,3.92
2023-05-11T19:19:04.998Z,4.00
2023-05-11T19:21:33.172Z,4.18
2023-05-11T19:24:00.418Z,4.07
2023-05-11T19:26:27.532Z,5.53
2023-05-11T19:28:54.696Z,5.80
2023-05-11T19:31:23.387Z,6.32
2023-05-11T19:33:50.842Z,5.90
2023-05-11T19:36:18.019Z,5.10
2023-05-11T19:38:45.086Z,4.72
2023-05-11T19:41:12.733Z,4.30
2023-05-11T19:43:39.811Z,5.00
2023-05-11T19:46:07.909Z,4.85
2023-05-11T19:48:35.306Z,4.65
2023-05-11T19:51:02.814Z,4.93
2023-05-11T19:53:30.007Z,5.47
2023-05-11T19:55:57.195Z,5.70
2023-05-11T19:58:24.510Z,5.53
2023-05-11T20:00:51.656Z,6.72
2023-05-11T20:03:18.780Z,6.03
2023-05-11T20:05:46.370Z,6.50
2023-05-11T20:08:13.940Z,6.15
2023-05-11T20:10:41.105Z,5.75
2023-05-11T20:13:08.310Z,5.95
2023-05-11T20:15:35.414Z,5.32
2023-05-11T20:18:03.088Z,4.90
2023-05-11T20:20:31.508Z,5.63
2023-05-11T20:22:59.518Z,5.20
2023-05-11T20:25:26.702Z,5.25
2023-05-11T20:27:53.868Z,4.88
2023-05-11T20:30:21.209Z,5.13
2023-05-11T20:35:18.792Z,5.22
2023-05-11T20:37:46.117Z,5.25
2023-05-11T20:40:13.383Z,5.35
2023-05-11T20:42:40.464Z,4.97
2023-05-11T20:45:08.214Z,5.25
2023-05-11T20:47:35.414Z,5.18
2023-05-11T20:50:02.635Z,5.20
2023-05-11T20:52:30.159Z,5.20
2023-05-11T20:54:57.376Z,4.72
2023-05-11T20:57:24.598Z,5.25
2023-05-11T21:02:21.828Z,4.82
2023-05-11T21:04:49.131Z,5.28
2023-05-11T21:07:16.283Z,5.32
2023-05-11T21:09:44.470Z,5.53
2023-05-11T21:12:11.603Z,5.97
2023-05-11T21:14:38.773Z,5.88
2023-05-11T21:17:06.089Z,5.97
2023-05-11T21:19:33.233Z,6.00
2023-05-11T21:22:00.322Z,6.22
2023-05-11T21:24:27.392Z,6.15
2023-05-11T21:26:54.579Z,5.78
2023-05-11T21:29:21.683Z,5.30
2023-05-11T21:31:48.862Z,5.97
2023-05-11T21:34:16.861Z,5.47
2023-05-11T21:36:45.550Z,4.85
2023-05-11T21:39:15.809Z,4.90
2023-05-11T21:41:42.904Z,5.35
2023-05-11T21:44:10.073Z,4.65
2023-05-11T21:46:37.229Z,5.00
2023-05-11T21:49:04.367Z,5.68
2023-05-11T21:51:32.994Z,5.40
2023-05-11T21:54:00.111Z,5.45
2023-05-11T21:56:27.234Z,5.53
2023-05-11T21:58:54.405Z,5.38
2023-05-11T22:01:21.609Z,5.00
2023-05-11T22:03:48.897Z,5.78
2023-05-11T22:06:16.249Z,5.40
2023-05-11T22:08:43.363Z,5.50
2023-05-11T22:11:10.512Z,5.78
2023-05-11T22:13:37.585Z,5.80
2023-05-11T22:16:05.032Z,5.57
2023-05-11T22:18:32.143Z,5.60
2023-05-11T22:20:59.236Z,5.90
2023-05-11T22:23:26.833Z,5.38
2023-05-11T22:25:53.918Z,5.90
2023-05-11T22:28:20.991Z,6.28
2023-05-11T22:30:48.139Z,5.75
2023-05-11T22:33:15.415Z,5.50
2023-05-11T22:35:42.477Z,5.70
2023-05-11T22:38:09.584Z,5.43
2023-05-11T22:40:36.739Z,5.15
2023-05-11T22:43:03.882Z,4.78
2023-05-11T22:45:31.073Z,4.47
2023-05-11T22:47:58.361Z,3.80
2023-05-11T22:50:25.545Z,4.35
2023-05-11T22:52:53.147Z,3.50
2023-05-11T22:55:20.196Z,3.60
2023-05-11T22:57:47.245Z,3.22
2023-05-11T23:00:14.431Z,3.42
2023-05-11T23:02:41.782Z,3.13
2023-05-11T23:05:09.421Z,3.13
2023-05-11T23:07:36.613Z,2.97
2023-05-11T23:10:03.681Z,3.05
2023-05-11T23:12:30.786Z,3.15
2023-05-11T23:14:57.860Z,2.70
2023-05-11T23:17:25.059Z,3.10
2023-05-11T23:19:52.235Z,3.08
2023-05-11T23:22:19.285Z,2.70
2023-05-11T23:24:46.400Z,3.08
2023-05-11T23:27:13.528Z,3.13
2023-05-11T23:29:40.716Z,2.78
2023-05-11T23:32:07.929Z,3.13
2023-05-11T23:34:35.068Z,3.65
2023-05-11T23:37:02.187Z,4.03
2023-05-11T23:39:29.704Z,3.53
2023-05-11T23:41:56.820Z,3.85
2023-05-11T23:44:23.908Z,3.80
2023-05-11T23:46:51.037Z,3.78
2023-05-11T23:49:18.189Z,3.47
2023-05-11T23:51:45.279Z,3.60
2023-05-11T23:54:12.567Z,3.90
2023-05-11T23:56:39.659Z,3.63
2023-05-11T23:59:06.732Z,3.58
